Beresford, South Dakota
Current Conditions -  °F | °C
As of 6:15 PM on Wednesday 28 Jan 2015 (Local Time) from KYKN Reporting Station
Clear Clear  
Wind Chill: 36°   Ceiling: Unl
Heat Index: 43°   Visibility: 10mi
Dew Point: 36°   Wind: 13mph
Humidity: 76%   Direction: 320°NW
Pressure: 29.78"   Gusts: NA
Location:  43.08°N, 96.77°W
Report Text: KYKN 290015Z AUTO 32011KT 10SM CLR 06/02 A2978 RMK AO1
Loading
Personal Weather Stations






























Interactive Weather Map New forecast layout! Learn more

10-Day Weather Forecast

Advertisements
Track Severe Weather on mobile